Time;durP1;ratioP1;P1;durP2;ratioP2;P2;SDS_P1;SDS_P2;PMS_P1;PMS_P2;Temp;Humidity;BMP_temperature;BMP_pressure;BME280_temperature;BME280_humidity;BME280_pressure;Samples;Min_cycle;Max_cycle;Signal;HPM_P1;HPM_P2
2022/06/14 00:00:53;;;;;;;10.82;6.47;;;;;;;19.51;100.00;-24359.97;5030322;28;20176;-64
2022/06/14 00:03:30;;;;;;;10.57;6.63;;;;;;;19.45;100.00;-24358.16;5027293;28;20187;-64
2022/06/14 00:06:02;;;;;;;11.55;6.72;;;;;;;19.24;100.00;-24352.59;5028161;28;20229;-63
2022/06/14 00:08:28;;;;;;;11.77;7.05;;;;;;;19.38;100.00;-24356.50;5029726;28;20186;-64
2022/06/14 00:10:56;;;;;;;11.38;6.68;;;;;;;18.99;100.00;-24345.66;5030407;28;20269;-64
2022/06/14 00:13:23;;;;;;;11.23;6.75;;;;;;;18.88;100.00;-24342.56;5029023;28;20678;-64
2022/06/14 00:15:49;;;;;;;12.52;7.13;;;;;;;19.38;100.00;-24356.34;5031159;28;20237;-63
2022/06/14 00:18:16;;;;;;;12.35;7.18;;;;;;;19.02;100.00;-24346.47;5029108;28;20210;-67
2022/06/14 00:20:43;;;;;;;24.00;7.95;;;;;;;19.35;100.00;-24355.53;5030439;28;20186;-65
2022/06/14 00:23:09;;;;;;;12.77;7.38;;;;;;;19.24;100.00;-24352.47;5029425;28;20195;-63
2022/06/14 00:25:40;;;;;;;12.38;7.13;;;;;;;19.03;100.00;-24346.75;5029393;28;20186;-65
2022/06/14 00:28:08;;;;;;;11.05;6.55;;;;;;;19.16;100.00;-24350.38;5026043;28;20219;-64
2022/06/14 00:30:35;;;;;;;13.68;7.05;;;;;;;19.30;100.00;-24354.28;5029225;28;20182;-67
2022/06/14 00:33:01;;;;;;;9.85;6.35;;;;;;;19.16;100.00;-24350.22;5029554;28;20183;-63
2022/06/14 00:35:27;;;;;;;10.82;7.00;;;;;;;19.11;100.00;-24348.97;5029361;28;20685;-64
2022/06/14 00:37:53;;;;;;;10.07;6.45;;;;;;;18.92;100.00;-24343.69;5029158;28;20662;-62
2022/06/14 00:40:30;;;;;;;10.52;6.65;;;;;;;19.05;100.00;-24347.19;5029461;28;20205;-66
2022/06/14 00:42:56;;;;;;;10.60;6.90;;;;;;;18.63;100.00;-24335.63;5026674;28;20722;-62
2022/06/14 00:45:22;;;;;;;9.85;6.15;;;;;;;19.02;100.00;-24346.47;5029613;28;20179;-64
2022/06/14 00:47:59;;;;;;;13.38;7.25;;;;;;;18.97;100.00;-24345.22;5028455;28;20653;-61
2022/06/14 00:50:34;;;;;;;13.30;7.47;;;;;;;18.56;100.00;-24333.81;5027844;28;21264;-62
2022/06/14 00:53:11;;;;;;;12.95;6.68;;;;;;;18.67;100.00;-24336.72;5028855;28;20265;-64
2022/06/14 00:55:45;;;;;;;12.82;6.38;;;;;;;18.40;100.00;-24329.47;5028663;28;20548;-64
2022/06/14 00:58:18;;;;;;;10.32;6.70;;;;;;;18.53;100.00;-24333.13;5028011;28;20202;-64
2022/06/14 01:01:04;;;;;;;10.77;6.60;;;;;;;18.83;100.00;-24341.19;5032115;28;20183;-65
2022/06/14 01:03:44;;;;;;;8.93;5.95;;;;;;;18.51;100.00;-24332.41;5032777;28;20649;-65
2022/06/14 01:06:24;;;;;;;15.20;7.20;;;;;;;18.74;100.00;-24338.81;5029149;28;20189;-66
2022/06/14 01:09:04;;;;;;;11.27;6.53;;;;;;;18.79;100.00;-24340.06;5030670;28;20665;-64
2022/06/14 01:12:00;;;;;;;9.93;6.45;;;;;;;18.80;100.00;-24340.50;5031409;28;20182;-66
2022/06/14 01:15:00;;;;;;;11.95;6.45;;;;;;;18.72;100.00;-24338.13;5031768;28;20187;-60
2022/06/14 01:17:26;;;;;;;11.10;6.70;;;;;;;18.34;100.00;-24327.81;5030088;28;20622;-63
2022/06/14 01:19:52;;;;;;;11.23;6.65;;;;;;;18.40;100.00;-24329.47;5032734;28;20199;-66
2022/06/14 01:22:18;;;;;;;11.32;6.15;;;;;;;18.85;100.00;-24341.75;5030659;28;20191;-65
2022/06/14 01:24:44;;;;;;;13.10;7.13;;;;;;;18.69;100.00;-24337.44;5032260;28;20175;-65
2022/06/14 01:27:14;;;;;;;13.73;6.72;;;;;;;18.69;100.00;-24337.44;5031082;28;20179;-64
2022/06/14 01:29:44;;;;;;;10.43;6.13;;;;;;;18.26;100.00;-24325.44;5031265;28;20202;-64
2022/06/14 01:32:14;;;;;;;10.10;6.75;;;;;;;18.44;100.00;-24330.59;5031516;28;20180;-64
2022/06/14 01:34:45;;;;;;;9.25;5.95;;;;;;;18.49;100.00;-24331.84;5031852;28;20175;-65
2022/06/14 01:37:11;;;;;;;10.10;6.82;;;;;;;18.28;100.00;-24326.13;5031066;28;20199;-62
2022/06/14 01:39:37;;;;;;;10.38;6.43;;;;;;;18.25;100.00;-24325.16;5032443;28;20226;-67
2022/06/14 01:42:22;;;;;;;11.02;6.60;;;;;;;18.37;100.00;-24328.50;5031402;28;20237;-63
2022/06/14 01:45:23;;;;;;;9.82;5.93;;;;;;;18.57;100.00;-24333.94;5032039;28;20194;-63
2022/06/14 01:48:20;;;;;;;9.00;6.13;;;;;;;18.51;100.00;-24332.41;5029412;28;20653;-62
2022/06/14 01:54:15;;;;;;;9.90;5.88;;;;;;;18.51;100.00;-24332.41;5030934;28;20191;-63
2022/06/14 01:57:04;;;;;;;10.68;6.28;;;;;;;18.48;100.00;-24331.72;5029971;28;20325;-62
2022/06/14 01:59:45;;;;;;;11.23;7.07;;;;;;;18.50;100.00;-24332.28;5031382;28;20874;-63
2022/06/14 02:02:23;;;;;;;11.50;6.47;;;;;;;18.49;100.00;-24332.00;5027148;28;20206;-66
2022/06/14 02:05:04;;;;;;;11.05;6.57;;;;;;;18.55;100.00;-24333.53;5031574;28;20203;-65
2022/06/14 02:07:40;;;;;;;11.40;6.32;;;;;;;18.52;100.00;-24332.69;5030097;28;20187;-66
2022/06/14 02:10:22;;;;;;;11.52;6.88;;;;;;;18.59;100.00;-24334.50;5028218;28;20210;-64
2022/06/14 02:13:08;;;;;;;12.15;6.75;;;;;;;18.52;100.00;-24332.69;5028986;28;20567;-62
2022/06/14 02:15:43;;;;;;;11.98;6.50;;;;;;;18.50;100.00;-24332.28;5031462;28;20681;-63
2022/06/14 02:18:24;;;;;;;11.32;6.95;;;;;;;18.43;100.00;-24330.19;5028813;28;20301;-63
2022/06/14 02:20:58;;;;;;;10.38;6.40;;;;;;;18.33;100.00;-24327.53;5029392;28;20559;-63
2022/06/14 02:23:24;;;;;;;12.23;6.03;;;;;;;18.40;100.00;-24329.47;5030969;28;20183;-66
2022/06/14 02:25:56;;;;;;;10.57;6.10;;;;;;;18.08;100.00;-24320.72;5031834;28;20199;-65
2022/06/14 02:28:29;;;;;;;10.35;6.05;;;;;;;18.59;100.00;-24334.50;5030945;28;20237;-65
2022/06/14 02:31:00;;;;;;;10.40;6.20;;;;;;;18.50;100.00;-24332.13;5030740;28;20191;-65
2022/06/14 02:33:44;;;;;;;10.05;6.00;;;;;;;18.12;100.00;-24321.53;5029955;28;20186;-64
2022/06/14 02:36:21;;;;;;;11.38;5.97;;;;;;;18.08;100.00;-24320.56;5028103;28;20190;-63
2022/06/14 02:39:11;;;;;;;9.95;5.85;;;;;;;17.72;100.00;-24310.53;5031197;28;20206;-65
2022/06/14 02:41:50;;;;;;;12.57;6.45;;;;;;;18.31;100.00;-24326.97;5030335;28;20182;-63
2022/06/14 02:44:27;;;;;;;9.98;6.28;;;;;;;18.38;100.00;-24328.94;5028548;28;20186;-62
2022/06/14 02:47:00;;;;;;;11.73;6.53;;;;;;;18.33;100.00;-24327.41;5029463;28;20231;-63
2022/06/14 02:49:35;;;;;;;11.55;6.57;;;;;;;18.22;100.00;-24324.47;5030112;28;20187;-62
2022/06/14 02:52:34;;;;;;;10.10;6.43;;;;;;;18.25;100.00;-24325.31;5031167;28;20304;-61
2022/06/14 02:55:07;;;;;;;12.23;6.72;;;;;;;18.73;100.00;-24338.41;5030120;28;20191;-63
2022/06/14 02:57:58;;;;;;;11.70;6.53;;;;;;;18.73;100.00;-24338.53;5031842;28;20520;-63
2022/06/14 03:00:36;;;;;;;9.93;5.72;;;;;;;19.00;100.00;-24345.91;5031362;28;20183;-67
2022/06/14 03:03:55;;;;;;;9.95;6.35;;;;;;;19.42;100.00;-24357.59;5031400;28;20605;-65
2022/06/14 03:06:32;;;;;;;16.65;5.82;;;;;;;19.24;100.00;-24352.59;5028969;28;20191;-65
2022/06/14 03:09:17;;;;;;;11.60;6.68;;;;;;;20.31;100.00;-24381.94;5030170;28;20210;-63
2022/06/14 03:11:53;;;;;;;11.38;6.50;;;;;;;20.38;100.00;-24383.75;5030308;28;20179;-66
2022/06/14 03:14:43;;;;;;;12.43;6.40;;;;;;;21.08;100.00;-24403.16;5030414;28;20238;-68
2022/06/14 03:17:25;;;;;;;16.90;6.60;;;;;;;21.59;100.00;-24417.16;5028428;28;20276;-63
2022/06/14 03:20:19;;;;;;;14.18;6.57;;;;;;;22.07;100.00;-24430.03;5026854;28;20272;-66
2022/06/14 03:22:57;;;;;;;10.55;6.05;;;;;;;22.47;100.00;-24441.13;5023072;28;20602;-63
2022/06/14 03:25:39;;;;;;;10.48;6.88;;;;;;;23.10;100.00;-24458.25;5024254;28;20171;-64
2022/06/14 03:28:38;;;;;;;10.50;6.20;;;;;;;24.09;100.00;-24485.31;5023144;28;20175;-64
2022/06/14 03:31:10;;;;;;;13.63;6.38;;;;;;;24.50;100.00;-24496.50;5023706;28;20195;-65
2022/06/14 03:34:09;;;;;;;14.20;6.45;;;;;;;25.06;100.00;-24511.91;5024368;28;20207;-63
2022/06/14 03:36:35;;;;;;;11.68;6.13;;;;;;;25.42;100.00;-24521.69;5023730;28;20180;-66
2022/06/14 03:39:10;;;;;;;10.32;6.05;;;;;;;26.02;100.00;-24537.94;5022791;28;20578;-64
2022/06/14 03:41:39;;;;;;;9.98;6.68;;;;;;;26.26;100.00;-24544.53;5023505;28;20182;-64
2022/06/14 03:44:05;;;;;;;12.23;7.47;;;;;;;25.99;100.00;-24537.09;5024574;28;20187;-63
2022/06/14 03:46:36;;;;;;;11.27;6.60;;;;;;;25.75;100.00;-24530.50;5023817;28;20730;-63
2022/06/14 03:49:09;;;;;;;13.50;7.20;;;;;;;25.38;100.00;-24520.59;5023187;28;20183;-63
2022/06/14 03:52:13;;;;;;;12.20;7.30;;;;;;;25.95;100.00;-24536.13;5023268;28;20250;-64
2022/06/14 03:55:00;;;;;;;11.90;6.93;;;;;;;26.40;100.00;-24548.09;5022760;28;20266;-67
2022/06/14 03:57:47;;;;;;;11.70;6.78;;;;;;;27.39;100.00;-24574.97;5022509;28;21538;-66
2022/06/14 04:00:28;;;;;;;12.80;7.18;;;;;;;27.84;100.00;-24587.19;5023400;28;20210;-65
2022/06/14 04:03:13;;;;;;;12.80;7.63;;;;;;;27.82;98.44;-24586.78;5023340;28;20254;-66
2022/06/14 04:06:12;;;;;;;10.80;6.68;;;;;;;27.05;100.00;-24565.81;5023237;28;20191;-66
2022/06/14 04:08:56;;;;;;;10.82;6.28;;;;;;;27.60;98.66;-24580.88;5023937;28;20184;-66
2022/06/14 04:11:24;;;;;;;9.10;6.10;;;;;;;27.04;100.00;-24565.66;5023041;28;20274;-66
2022/06/14 04:14:14;;;;;;;10.93;6.68;;;;;;;26.66;100.00;-24555.22;5023589;28;20183;-66
2022/06/14 04:16:48;;;;;;;10.27;6.10;;;;;;;26.32;100.00;-24546.16;5023483;28;20214;-66
2022/06/14 04:19:47;;;;;;;9.98;6.05;;;;;;;26.74;100.00;-24557.56;5022524;28;20242;-66
2022/06/14 04:22:31;;;;;;;9.73;6.32;;;;;;;27.57;99.75;-24580.06;5025384;28;20623;-67
2022/06/14 04:25:33;;;;;;;8.60;5.88;;;;;;;27.41;98.99;-24575.53;5027043;28;20266;-65
2022/06/14 04:28:06;;;;;;;9.68;6.00;;;;;;;27.57;99.76;-24579.91;5028360;28;20199;-66
2022/06/14 04:30:41;;;;;;;9.30;6.13;;;;;;;27.95;95.71;-24590.19;5027980;28;20626;-65
2022/06/14 04:33:10;;;;;;;10.18;6.18;;;;;;;29.06;93.38;-24620.28;5033417;28;20506;-66
2022/06/14 04:35:36;;;;;;;10.38;6.15;;;;;;;29.31;91.39;-24627.13;5033158;28;20237;-66
2022/06/14 04:38:09;;;;;;;11.50;7.03;;;;;;;29.06;90.65;-24620.16;5034268;28;20226;-65
2022/06/14 04:40:41;;;;;;;10.88;6.88;;;;;;;28.67;92.97;-24609.75;5032970;28;20183;-67
2022/06/14 04:43:16;;;;;;;9.95;6.57;;;;;;;29.04;93.69;-24619.75;5029094;28;20284;-65
2022/06/14 04:46:14;;;;;;;14.02;6.90;;;;;;;28.63;95.42;-24608.53;5031001;28;20206;-65
2022/06/14 04:49:01;;;;;;;10.50;6.85;;;;;;;27.39;100.00;-24575.13;5011326;28;20706;-64
2022/06/14 04:51:49;;;;;;;10.30;6.43;;;;;;;27.70;100.00;-24583.47;5030523;28;20280;-65
2022/06/14 04:54:39;;;;;;;10.55;6.22;;;;;;;28.10;95.89;-24594.31;5031344;28;20198;-66
2022/06/14 04:57:19;;;;;;;10.68;6.35;;;;;;;28.43;95.08;-24603.19;5031280;28;20193;-65
2022/06/14 04:59:58;;;;;;;9.13;6.03;;;;;;;29.07;93.35;-24620.56;5031520;28;20276;-66
2022/06/14 05:02:42;;;;;;;9.27;6.10;;;;;;;28.60;92.54;-24607.84;5029973;28;20210;-66
2022/06/14 05:05:12;;;;;;;9.73;5.85;;;;;;;28.06;93.64;-24593.22;5030798;28;21081;-65
2022/06/14 05:07:45;;;;;;;9.73;5.70;;;;;;;28.52;92.14;-24605.66;5031966;28;20701;-65
2022/06/14 05:10:19;;;;;;;9.18;5.78;;;;;;;28.37;92.18;-24601.69;5031410;28;20658;-66
2022/06/14 05:13:31;;;;;;;8.75;5.53;;;;;;;28.13;94.87;-24595.13;5030831;28;20178;-66
2022/06/14 05:16:02;;;;;;;9.98;5.30;;;;;;;27.55;97.64;-24579.38;5031334;28;20187;-65
2022/06/14 05:19:00;;;;;;;8.85;5.95;;;;;;;27.97;96.77;-24590.75;5030791;28;20641;-65
2022/06/14 05:21:47;;;;;;;9.90;5.72;;;;;;;27.77;96.52;-24585.25;5030358;28;20175;-65
2022/06/14 05:24:13;;;;;;;8.80;5.30;;;;;;;27.03;100.00;-24565.25;5029298;28;20285;-66
2022/06/14 05:27:14;;;;;;;8.57;5.65;;;;;;;27.41;100.00;-24575.53;5031167;28;20611;-64
2022/06/14 05:30:06;;;;;;;10.27;5.57;;;;;;;27.24;98.52;-24571.16;5031903;28;20650;-64
2022/06/14 05:32:50;;;;;;;8.05;5.68;;;;;;;27.07;98.70;-24566.34;5020862;28;20191;-64
2022/06/14 05:35:31;;;;;;;8.80;5.90;;;;;;;27.64;98.18;-24581.84;5029503;28;20179;-63
2022/06/14 05:38:37;;;;;;;9.52;6.35;;;;;;;28.26;95.43;-24598.53;5030920;28;20176;-64
2022/06/14 05:41:08;;;;;;;8.35;5.32;;;;;;;27.92;95.02;-24589.38;5030178;28;20190;-64
2022/06/14 05:43:39;;;;;;;10.18;5.72;;;;;;;26.54;97.92;-24552.06;5029678;28;20175;-65
2022/06/14 05:46:13;;;;;;;9.68;5.70;;;;;;;26.31;100.00;-24545.91;5031858;28;20560;-66
2022/06/14 05:48:46;;;;;;;10.70;6.10;;;;;;;26.28;100.00;-24545.06;5031033;28;20238;-65
2022/06/14 05:51:14;;;;;;;9.60;5.85;;;;;;;26.19;100.00;-24542.59;5031161;28;20183;-64
2022/06/14 05:53:51;;;;;;;9.25;5.55;;;;;;;25.90;100.00;-24534.75;5029927;28;20193;-64
2022/06/14 05:56:23;;;;;;;9.35;5.38;;;;;;;25.91;100.00;-24535.03;5030232;28;20186;-66
2022/06/14 05:59:04;;;;;;;8.85;5.65;;;;;;;26.04;100.00;-24538.47;5031525;28;20215;-64
2022/06/14 06:01:43;;;;;;;10.52;5.78;;;;;;;26.19;100.00;-24542.59;5029082;28;20178;-64
2022/06/14 06:04:16;;;;;;;7.70;5.38;;;;;;;25.54;100.00;-24524.88;5029054;28;20195;-63
2022/06/14 06:06:46;;;;;;;8.85;5.90;;;;;;;25.59;100.00;-24526.25;5028876;28;20175;-64
2022/06/14 06:09:25;;;;;;;8.05;5.28;;;;;;;25.72;100.00;-24529.69;5030538;28;20176;-64
2022/06/14 06:11:56;;;;;;;7.07;5.22;;;;;;;25.34;100.00;-24519.50;5030050;28;20179;-64
2022/06/14 06:14:37;;;;;;;7.78;5.30;;;;;;;25.47;100.00;-24522.94;5033515;28;20674;-65
2022/06/14 06:17:22;;;;;;;7.53;5.03;;;;;;;25.76;100.00;-24530.78;5028578;28;20575;-63
2022/06/14 06:20:07;;;;;;;8.25;5.35;;;;;;;25.68;100.00;-24528.56;5030628;28;20194;-64
2022/06/14 06:22:41;;;;;;;10.40;5.35;;;;;;;24.96;100.00;-24509.03;5029961;28;20191;-64
2022/06/14 06:25:26;;;;;;;7.43;5.00;;;;;;;25.07;100.00;-24512.19;5028740;28;20560;-64
2022/06/14 06:28:05;;;;;;;7.60;5.13;;;;;;;25.24;100.00;-24516.59;5030482;28;20184;-63
2022/06/14 06:30:58;;;;;;;7.68;5.72;;;;;;;25.79;100.00;-24531.75;5029477;28;20668;-64
2022/06/14 06:33:27;;;;;;;10.93;6.10;;;;;;;25.74;100.00;-24530.22;5028983;28;20808;-63
2022/06/14 06:36:03;;;;;;;11.73;6.03;;;;;;;25.75;100.00;-24530.50;5030998;28;20176;-64
2022/06/14 06:39:01;;;;;;;9.68;5.80;;;;;;;26.09;100.00;-24539.84;5030082;28;20297;-64
2022/06/14 06:41:50;;;;;;;8.80;5.82;;;;;;;25.94;100.00;-24535.88;5025483;28;20202;-63
2022/06/14 06:44:22;;;;;;;7.07;5.18;;;;;;;25.95;100.00;-24536.00;5031439;28;20297;-64
2022/06/14 06:47:05;;;;;;;7.38;5.07;;;;;;;25.91;100.00;-24534.91;5029635;28;20269;-64
2022/06/14 06:49:57;;;;;;;10.77;6.05;;;;;;;25.72;100.00;-24529.69;5028679;28;20646;-62
2022/06/14 06:52:38;;;;;;;7.50;5.10;;;;;;;26.23;100.00;-24543.56;5027978;28;20294;-63
2022/06/14 06:55:10;;;;;;;8.88;5.68;;;;;;;26.53;100.00;-24551.81;5028029;28;20183;-63
2022/06/14 06:57:40;;;;;;;8.80;5.60;;;;;;;26.37;100.00;-24547.41;5028741;28;20536;-64
2022/06/14 07:00:07;;;;;;;8.88;5.32;;;;;;;26.66;100.00;-24555.38;5025854;28;20213;-64
2022/06/14 07:02:41;;;;;;;7.05;5.10;;;;;;;26.62;100.00;-24554.13;5029041;28;20183;-64
2022/06/14 07:05:14;;;;;;;8.18;5.05;;;;;;;26.59;100.00;-24553.44;5026407;28;20220;-64
2022/06/14 07:07:53;;;;;;;7.15;5.20;;;;;;;27.01;100.00;-24564.69;5029882;28;20179;-63
2022/06/14 07:10:29;;;;;;;9.18;5.78;;;;;;;26.75;100.00;-24557.84;5031204;28;20647;-63
2022/06/14 07:13:03;;;;;;;8.73;5.05;;;;;;;26.70;100.00;-24556.31;5030761;28;20628;-64
2022/06/14 07:15:33;;;;;;;7.45;5.28;;;;;;;26.89;100.00;-24561.56;5029989;28;20206;-64
2022/06/14 07:18:04;;;;;;;7.03;5.43;;;;;;;27.30;100.00;-24572.66;5030097;28;20679;-64
2022/06/14 07:20:38;;;;;;;7.82;5.15;;;;;;;27.24;100.00;-24571.16;5030490;28;20194;-64
2022/06/14 07:23:09;;;;;;;8.32;5.35;;;;;;;27.23;100.00;-24570.88;5030072;28;20182;-62
2022/06/14 07:25:45;;;;;;;8.85;5.65;;;;;;;27.12;100.00;-24567.72;5030347;28;20192;-64
2022/06/14 07:28:19;;;;;;;8.93;5.22;;;;;;;27.24;100.00;-24571.00;5027583;28;20190;-63
2022/06/14 07:30:50;;;;;;;7.38;5.00;;;;;;;27.05;98.20;-24565.94;5029201;28;20197;-64
2022/06/14 07:33:21;;;;;;;6.35;4.60;;;;;;;26.94;98.34;-24562.78;5029388;28;20189;-63
2022/06/14 07:35:51;;;;;;;10.32;4.95;;;;;;;27.12;99.01;-24567.84;5029338;28;20183;-64
2022/06/14 07:38:45;;;;;;;7.38;4.93;;;;;;;27.04;98.83;-24565.66;5029710;28;20207;-63
2022/06/14 07:41:16;;;;;;;7.57;5.43;;;;;;;26.88;99.72;-24561.28;5028607;28;20625;-63
2022/06/14 07:43:53;;;;;;;9.18;4.97;;;;;;;27.51;96.80;-24578.41;5028263;28;20175;-65
2022/06/14 07:46:27;;;;;;;8.25;5.22;;;;;;;27.17;97.90;-24569.09;5029830;28;20687;-62
2022/06/14 07:49:03;;;;;;;8.85;5.15;;;;;;;27.56;98.00;-24579.66;5030178;28;20214;-63
2022/06/14 07:51:33;;;;;;;7.05;4.95;;;;;;;27.79;97.67;-24585.94;5026816;28;20206;-64
2022/06/14 07:54:21;;;;;;;8.70;5.07;;;;;;;28.04;96.41;-24592.66;5029161;28;20183;-63
2022/06/14 07:57:26;;;;;;;7.57;4.97;;;;;;;28.09;96.31;-24594.16;5028745;28;20179;-63
2022/06/14 08:01:07;;;;;;;7.47;5.50;;;;;;;27.93;96.96;-24589.78;5024593;28;20215;-64
2022/06/14 08:02:50;;;;;;;6.03;4.60;;;;;;;27.94;97.51;-24590.06;5028378;28;20191;-64
2022/06/14 08:05:21;;;;;;;7.30;5.07;;;;;;;28.23;94.85;-24597.72;5029573;28;20187;-63
2022/06/14 08:07:49;;;;;;;9.13;5.07;;;;;;;28.32;95.64;-24600.19;5033467;28;20191;-63
2022/06/14 08:10:21;;;;;;;6.60;4.70;;;;;;;28.16;97.02;-24595.94;5033896;28;20241;-63
2022/06/14 08:12:54;;;;;;;6.57;4.22;;;;;;;28.67;93.08;-24609.63;5033862;28;20278;-63
2022/06/14 08:15:25;;;;;;;6.85;4.63;;;;;;;28.66;94.22;-24609.50;5032645;28;20699;-64
2022/06/14 08:17:57;;;;;;;6.82;4.85;;;;;;;28.75;93.07;-24611.97;5033255;28;20727;-63
2022/06/14 08:20:22;;;;;;;6.05;4.60;;;;;;;28.66;90.34;-24609.50;5033887;28;20206;-64
2022/06/14 08:22:54;;;;;;;6.35;4.28;;;;;;;28.63;90.06;-24608.66;5033801;28;20201;-63
2022/06/14 08:25:28;;;;;;;6.95;4.82;;;;;;;28.51;89.72;-24605.38;5032357;28;20175;-63
2022/06/14 08:28:01;;;;;;;7.00;4.75;;;;;;;29.06;86.12;-24620.16;5032849;28;20174;-63
2022/06/14 08:30:36;;;;;;;6.22;4.50;;;;;;;29.01;82.86;-24618.78;5029299;28;20244;-64
2022/06/14 08:33:24;;;;;;;6.97;4.93;;;;;;;28.95;80.77;-24617.28;5033085;28;20178;-63
2022/06/14 08:35:57;;;;;;;5.03;3.90;;;;;;;29.29;79.69;-24626.44;5033015;28;20210;-63
2022/06/14 08:38:41;;;;;;;7.18;4.57;;;;;;;29.64;82.94;-24635.84;5032694;28;20206;-63
2022/06/14 08:41:34;;;;;;;6.22;4.22;;;;;;;29.40;81.11;-24629.44;5033313;28;20179;-64
2022/06/14 08:44:25;;;;;;;6.75;4.40;;;;;;;29.57;82.22;-24634.09;5033348;28;20185;-62
2022/06/14 08:47:25;;;;;;;5.90;4.00;;;;;;;29.42;82.00;-24630.13;5031773;28;20230;-64
2022/06/14 08:50:36;;;;;;;8.35;4.45;;;;;;;29.32;84.66;-24627.41;5056797;28;20187;-62
2022/06/14 08:53:26;;;;;;;5.68;4.20;;;;;;;29.68;76.02;-24637.09;5023851;28;20214;-64
2022/06/14 08:56:06;;;;;;;5.45;3.88;;;;;;;29.57;73.61;-24634.09;5033415;28;20277;-64
2022/06/14 08:58:41;;;;;;;5.15;3.78;;;;;;;29.71;76.22;-24637.75;5031035;28;20206;-64
2022/06/14 09:01:18;;;;;;;5.22;4.05;;;;;;;29.83;74.37;-24641.03;5032393;28;20269;-63
2022/06/14 09:04:12;;;;;;;6.55;4.38;;;;;;;29.63;71.46;-24635.72;5031533;28;20705;-64
2022/06/14 09:06:45;;;;;;;5.40;3.90;;;;;;;29.75;73.15;-24638.84;5031659;28;20175;-63
2022/06/14 09:09:29;;;;;;;6.78;4.03;;;;;;;29.91;73.12;-24643.09;5030950;28;20185;-64
2022/06/14 09:12:19;;;;;;;5.75;4.30;;;;;;;30.24;74.76;-24652.22;5032873;28;20269;-63
2022/06/14 09:15:00;;;;;;;5.07;3.80;;;;;;;30.27;73.86;-24652.91;5031178;28;20268;-64
2022/06/14 09:17:45;;;;;;;5.22;4.07;;;;;;;30.26;74.11;-24652.78;5031841;28;20190;-65
2022/06/14 09:20:46;;;;;;;6.05;4.18;;;;;;;30.32;72.77;-24654.13;5030186;28;20585;-63
2022/06/14 09:23:27;;;;;;;5.68;4.30;;;;;;;30.06;74.69;-24647.19;5032623;28;20337;-63
2022/06/14 09:26:24;;;;;;;5.32;4.30;;;;;;;30.32;70.89;-24654.28;5028751;28;20190;-63
2022/06/14 09:29:21;;;;;;;5.80;4.22;;;;;;;30.32;73.34;-24654.13;5026231;28;21542;-64
2022/06/14 09:32:10;;;;;;;4.80;3.88;;;;;;;30.19;71.35;-24650.72;5027039;28;20190;-63
2022/06/14 09:34:59;;;;;;;17.85;5.15;;;;;;;30.57;70.47;-24660.94;5030209;28;20273;-63
2022/06/14 09:37:36;;;;;;;5.97;4.10;;;;;;;30.46;70.32;-24657.94;5029609;28;20267;-63
2022/06/14 09:40:32;;;;;;;8.18;4.45;;;;;;;30.41;72.76;-24656.72;5030478;28;20198;-63
2022/06/14 09:43:34;;;;;;;5.90;4.07;;;;;;;30.21;71.36;-24651.28;5030187;28;20179;-63
2022/06/14 09:46:21;;;;;;;6.82;4.40;;;;;;;30.51;71.68;-24659.31;5030702;28;20194;-63
2022/06/14 09:49:11;;;;;;;5.03;4.07;;;;;;;30.36;70.39;-24655.34;5028633;28;20242;-63
2022/06/14 09:51:50;;;;;;;5.10;3.78;;;;;;;29.99;70.27;-24645.28;5029170;28;20249;-62
2022/06/14 09:54:22;;;;;;;6.70;4.10;;;;;;;29.85;70.12;-24641.59;5029194;28;20187;-63
2022/06/14 09:56:54;;;;;;;5.50;3.78;;;;;;;30.32;73.36;-24654.28;5029137;28;20182;-63
2022/06/14 09:59:35;;;;;;;6.15;4.25;;;;;;;30.24;68.06;-24652.09;5031019;28;20621;-63
2022/06/14 10:02:01;;;;;;;8.70;4.07;;;;;;;30.42;68.70;-24656.84;5030102;28;20178;-62
2022/06/14 10:04:54;;;;;;;5.85;4.03;;;;;;;30.54;70.33;-24660.25;5031100;28;20185;-64
2022/06/14 10:07:38;;;;;;;9.98;4.40;;;;;;;30.90;70.47;-24669.78;5027221;28;20175;-62
2022/06/14 10:10:31;;;;;;;7.45;4.20;;;;;;;30.94;69.88;-24671.03;5026665;28;20178;-67
2022/06/14 10:13:24;;;;;;;5.70;3.75;;;;;;;30.67;70.37;-24663.66;5026834;28;20179;-63
2022/06/14 10:16:15;;;;;;;5.05;3.83;;;;;;;30.84;69.46;-24668.31;5027949;28;20179;-62
2022/06/14 10:18:52;;;;;;;5.07;3.90;;;;;;;30.91;67.32;-24670.22;5023494;28;20202;-62
2022/06/14 10:21:28;;;;;;;6.40;3.92;;;;;;;30.88;69.02;-24669.25;5028808;28;20634;-65
2022/06/14 10:23:59;;;;;;;4.93;3.40;;;;;;;31.38;67.65;-24682.72;5023756;28;20213;-63
2022/06/14 10:29:56;;;;;;;7.55;4.13;;;;;;;31.27;67.12;-24679.88;5026015;28;20296;-63
2022/06/14 10:32:54;;;;;;;6.07;4.10;;;;;;;32.02;67.50;-24699.97;5024125;28;20175;-63
2022/06/14 10:35:31;;;;;;;5.32;3.88;;;;;;;32.26;65.10;-24706.38;5024147;28;20210;-63
2022/06/14 10:38:14;;;;;;;4.90;3.85;;;;;;;32.28;63.73;-24707.03;5023681;28;20328;-63
2022/06/14 10:41:08;;;;;;;4.15;3.30;;;;;;;31.44;65.86;-24684.50;5026454;28;20183;-65
2022/06/14 10:44:13;;;;;;;3.45;2.70;;;;;;;30.08;70.53;-24647.72;5026101;28;20190;-63
2022/06/14 10:47:11;;;;;;;3.72;2.78;;;;;;;29.50;70.79;-24632.19;5023925;28;20339;-63
2022/06/14 10:50:01;;;;;;;3.50;2.90;;;;;;;29.53;69.32;-24632.84;5022470;28;20213;-64
2022/06/14 10:52:58;;;;;;;4.28;2.80;;;;;;;29.45;72.71;-24630.81;5026141;28;20277;-62
2022/06/14 10:55:45;;;;;;;5.30;2.53;;;;;;;29.15;71.64;-24622.75;5026204;28;20171;-64
2022/06/14 10:58:29;;;;;;;4.13;3.00;;;;;;;28.90;73.27;-24616.06;5027482;28;20186;-63
2022/06/14 11:01:31;;;;;;;2.83;2.28;;;;;;;28.33;74.59;-24600.47;5026624;28;20179;-64
2022/06/14 11:04:07;;;;;;;4.35;3.05;;;;;;;27.96;75.96;-24590.47;5025169;28;20204;-63
2022/06/14 11:06:47;;;;;;;4.13;2.83;;;;;;;28.41;76.86;-24602.66;5025034;28;20253;-64
2022/06/14 11:09:54;;;;;;;3.40;2.55;;;;;;;28.35;76.82;-24601.00;5026367;28;20190;-64
2022/06/14 11:12:56;;;;;;;5.07;3.15;;;;;;;28.64;76.71;-24608.94;5026568;28;20248;-65
2022/06/14 11:15:56;;;;;;;6.00;3.08;;;;;;;28.71;73.33;-24610.88;5024060;28;20182;-62
2022/06/14 11:18:31;;;;;;;4.22;2.78;;;;;;;28.70;71.76;-24610.59;5019486;28;20206;-64
2022/06/14 11:21:14;;;;;;;4.85;3.22;;;;;;;28.53;71.33;-24605.94;5027975;28;21070;-63
2022/06/14 11:23:42;;;;;;;5.65;3.30;;;;;;;28.30;70.42;-24599.66;5028146;28;20198;-63
2022/06/14 11:26:26;;;;;;;4.97;3.40;;;;;;;28.47;74.77;-24604.44;5029587;28;20179;-63
2022/06/14 11:29:06;;;;;;;4.60;3.05;;;;;;;28.47;75.13;-24604.44;5028357;28;20190;-63
2022/06/14 11:31:47;;;;;;;4.47;3.30;;;;;;;28.43;85.91;-24603.19;5029401;28;20186;-65
2022/06/14 11:34:43;;;;;;;6.10;3.40;;;;;;;28.70;89.16;-24610.59;5028943;28;20262;-64
2022/06/14 11:37:39;;;;;;;5.85;3.80;;;;;;;28.59;92.07;-24607.56;5002940;28;20741;-63
2022/06/14 11:40:08;;;;;;;5.43;3.60;;;;;;;28.59;88.03;-24607.56;5030178;28;20207;-64
2022/06/14 11:42:57;;;;;;;5.80;3.05;;;;;;;28.59;80.94;-24607.44;5027883;28;20202;-63
2022/06/14 11:45:44;;;;;;;4.93;3.25;;;;;;;28.51;80.65;-24605.38;5028495;28;20179;-64
2022/06/14 11:48:50;;;;;;;4.00;2.97;;;;;;;28.53;75.96;-24605.94;5027704;28;20230;-64
2022/06/14 11:51:24;;;;;;;3.80;2.95;;;;;;;27.75;79.78;-24584.84;5028522;28;20697;-64
2022/06/14 11:53:58;;;;;;;4.88;3.10;;;;;;;26.40;84.17;-24548.09;5026462;28;20721;-63
2022/06/14 11:56:45;;;;;;;4.13;3.17;;;;;;;26.70;88.21;-24556.31;5027242;28;20194;-64
2022/06/14 11:59:22;;;;;;;5.20;3.33;;;;;;;26.33;86.34;-24546.31;5028199;28;20708;-63
2022/06/14 12:02:02;;;;;;;6.05;3.28;;;;;;;26.74;87.56;-24557.56;5028713;28;20275;-64
2022/06/14 12:04:53;;;;;;;5.78;3.70;;;;;;;26.79;91.77;-24558.94;5027330;28;20196;-63
2022/06/14 12:07:32;;;;;;;5.50;3.38;;;;;;;26.76;87.44;-24558.13;5028026;28;20684;-64
2022/06/14 12:10:34;;;;;;;5.05;3.08;;;;;;;27.36;86.21;-24574.31;5028275;28;20171;-63
2022/06/14 12:13:15;;;;;;;4.28;3.30;;;;;;;27.46;87.96;-24576.91;5027429;28;20187;-63
2022/06/14 12:15:55;;;;;;;7.00;3.50;;;;;;;27.14;90.82;-24568.28;5028207;28;20729;-64
2022/06/14 12:18:24;;;;;;;5.30;3.70;;;;;;;27.36;96.45;-24574.16;5027092;28;20290;-63
2022/06/14 12:21:13;;;;;;;5.05;3.65;;;;;;;27.46;91.07;-24577.03;5026703;28;20190;-64
2022/06/14 12:23:45;;;;;;;7.20;3.80;;;;;;;27.71;97.72;-24583.75;5028449;28;20167;-62
2022/06/14 12:26:37;;;;;;;4.38;3.42;;;;;;;27.66;100.00;-24582.38;5028111;28;20187;-63